sensor_id;sensor_type;location;lat;lon;timestamp;P1;durP1;ratioP1;P2;durP2;ratioP2
1759;SDS011;877;46.266;20.062;2023-03-01T00:00:03;34.92;;;20.80;;
1759;SDS011;877;46.266;20.062;2023-03-01T00:02:29;33.17;;;18.25;;
1759;SDS011;877;46.266;20.062;2023-03-01T00:04:55;28.98;;;18.52;;
1759;SDS011;877;46.266;20.062;2023-03-01T00:07:22;28.42;;;18.15;;
1759;SDS011;877;46.266;20.062;2023-03-01T00:09:48;31.77;;;18.00;;
1759;SDS011;877;46.266;20.062;2023-03-01T00:12:14;34.55;;;19.90;;
1759;SDS011;877;46.266;20.062;2023-03-01T00:14:41;32.03;;;18.08;;
1759;SDS011;877;46.266;20.062;2023-03-01T00:17:07;26.55;;;16.88;;
1759;SDS011;877;46.266;20.062;2023-03-01T00:19:33;34.55;;;18.75;;
1759;SDS011;877;46.266;20.062;2023-03-01T00:21:59;32.90;;;17.27;;
1759;SDS011;877;46.266;20.062;2023-03-01T00:24:25;33.40;;;17.98;;
1759;SDS011;877;46.266;20.062;2023-03-01T00:26:52;31.98;;;16.77;;
1759;SDS011;877;46.266;20.062;2023-03-01T00:29:20;27.30;;;16.58;;
1759;SDS011;877;46.266;20.062;2023-03-01T00:31:48;27.48;;;17.67;;
1759;SDS011;877;46.266;20.062;2023-03-01T00:34:14;25.83;;;16.52;;
1759;SDS011;877;46.266;20.062;2023-03-01T00:36:40;30.92;;;17.15;;
1759;SDS011;877;46.266;20.062;2023-03-01T00:39:09;33.35;;;18.30;;
1759;SDS011;877;46.266;20.062;2023-03-01T00:41:36;29.88;;;17.63;;
1759;SDS011;877;46.266;20.062;2023-03-01T00:44:02;27.02;;;16.20;;
1759;SDS011;877;46.266;20.062;2023-03-01T00:46:28;30.88;;;17.88;;
1759;SDS011;877;46.266;20.062;2023-03-01T00:48:58;28.90;;;16.35;;
1759;SDS011;877;46.266;20.062;2023-03-01T00:51:27;30.05;;;17.30;;
1759;SDS011;877;46.266;20.062;2023-03-01T00:53:54;32.15;;;16.85;;
1759;SDS011;877;46.266;20.062;2023-03-01T00:56:21;32.95;;;17.10;;
1759;SDS011;877;46.266;20.062;2023-03-01T00:58:48;31.52;;;17.33;;
1759;SDS011;877;46.266;20.062;2023-03-01T01:01:18;32.97;;;18.02;;
1759;SDS011;877;46.266;20.062;2023-03-01T01:03:46;31.58;;;16.77;;
1759;SDS011;877;46.266;20.062;2023-03-01T01:06:13;32.10;;;16.42;;
1759;SDS011;877;46.266;20.062;2023-03-01T01:08:41;28.42;;;15.80;;
1759;SDS011;877;46.266;20.062;2023-03-01T01:11:09;26.50;;;14.80;;
1759;SDS011;877;46.266;20.062;2023-03-01T01:13:35;27.25;;;16.38;;
1759;SDS011;877;46.266;20.062;2023-03-01T01:16:01;26.35;;;16.50;;
1759;SDS011;877;46.266;20.062;2023-03-01T01:18:28;25.05;;;15.45;;
1759;SDS011;877;46.266;20.062;2023-03-01T01:20:54;29.30;;;15.30;;
1759;SDS011;877;46.266;20.062;2023-03-01T01:23:20;30.23;;;17.50;;
1759;SDS011;877;46.266;20.062;2023-03-01T01:25:46;29.67;;;15.93;;
1759;SDS011;877;46.266;20.062;2023-03-01T01:28:12;30.90;;;15.35;;
1759;SDS011;877;46.266;20.062;2023-03-01T01:30:38;30.05;;;15.50;;
1759;SDS011;877;46.266;20.062;2023-03-01T01:33:04;27.88;;;16.08;;
1759;SDS011;877;46.266;20.062;2023-03-01T01:35:30;35.00;;;19.63;;
1759;SDS011;877;46.266;20.062;2023-03-01T01:37:57;31.40;;;19.85;;
1759;SDS011;877;46.266;20.062;2023-03-01T01:40:24;34.28;;;18.85;;
1759;SDS011;877;46.266;20.062;2023-03-01T01:42:50;32.22;;;18.00;;
1759;SDS011;877;46.266;20.062;2023-03-01T01:45:27;34.20;;;16.77;;
1759;SDS011;877;46.266;20.062;2023-03-01T01:47:54;30.63;;;16.80;;
1759;SDS011;877;46.266;20.062;2023-03-01T01:50:21;29.05;;;17.80;;
1759;SDS011;877;46.266;20.062;2023-03-01T01:52:49;28.80;;;16.60;;
1759;SDS011;877;46.266;20.062;2023-03-01T01:55:17;29.52;;;17.13;;
1759;SDS011;877;46.266;20.062;2023-03-01T01:57:47;29.67;;;17.25;;
1759;SDS011;877;46.266;20.062;2023-03-01T02:00:16;33.13;;;17.05;;
1759;SDS011;877;46.266;20.062;2023-03-01T02:02:42;42.65;;;21.35;;
1759;SDS011;877;46.266;20.062;2023-03-01T02:05:14;28.40;;;16.17;;
1759;SDS011;877;46.266;20.062;2023-03-01T02:07:43;27.92;;;15.23;;
1759;SDS011;877;46.266;20.062;2023-03-01T02:10:11;27.73;;;15.70;;
1759;SDS011;877;46.266;20.062;2023-03-01T02:12:37;27.17;;;15.63;;
1759;SDS011;877;46.266;20.062;2023-03-01T02:15:04;32.15;;;17.30;;
1759;SDS011;877;46.266;20.062;2023-03-01T02:17:31;29.63;;;16.45;;
1759;SDS011;877;46.266;20.062;2023-03-01T02:20:11;29.38;;;16.85;;
1759;SDS011;877;46.266;20.062;2023-03-01T02:22:42;29.05;;;18.08;;
1759;SDS011;877;46.266;20.062;2023-03-01T02:27:46;36.88;;;18.60;;
1759;SDS011;877;46.266;20.062;2023-03-01T02:30:14;31.42;;;19.25;;
1759;SDS011;877;46.266;20.062;2023-03-01T02:32:40;40.85;;;20.15;;
1759;SDS011;877;46.266;20.062;2023-03-01T02:35:08;41.28;;;20.45;;
1759;SDS011;877;46.266;20.062;2023-03-01T02:37:35;60.22;;;23.70;;
1759;SDS011;877;46.266;20.062;2023-03-01T02:40:04;49.90;;;21.63;;
1759;SDS011;877;46.266;20.062;2023-03-01T02:42:47;43.60;;;22.00;;
1759;SDS011;877;46.266;20.062;2023-03-01T02:45:14;29.70;;;17.00;;
1759;SDS011;877;46.266;20.062;2023-03-01T02:47:40;27.48;;;15.35;;
1759;SDS011;877;46.266;20.062;2023-03-01T02:50:15;27.98;;;16.55;;
1759;SDS011;877;46.266;20.062;2023-03-01T02:52:49;28.13;;;17.00;;
1759;SDS011;877;46.266;20.062;2023-03-01T02:55:19;26.25;;;16.13;;
1759;SDS011;877;46.266;20.062;2023-03-01T02:57:46;27.05;;;17.00;;
1759;SDS011;877;46.266;20.062;2023-03-01T03:00:17;30.20;;;17.60;;
1759;SDS011;877;46.266;20.062;2023-03-01T03:02:44;25.33;;;14.65;;
1759;SDS011;877;46.266;20.062;2023-03-01T03:05:12;27.73;;;14.75;;
1759;SDS011;877;46.266;20.062;2023-03-01T03:07:39;24.75;;;15.52;;
1759;SDS011;877;46.266;20.062;2023-03-01T03:10:07;24.63;;;15.07;;
1759;SDS011;877;46.266;20.062;2023-03-01T03:12:34;32.13;;;16.88;;
1759;SDS011;877;46.266;20.062;2023-03-01T03:15:01;26.98;;;16.10;;
1759;SDS011;877;46.266;20.062;2023-03-01T03:17:34;40.22;;;17.90;;
1759;SDS011;877;46.266;20.062;2023-03-01T03:20:02;29.88;;;14.40;;
1759;SDS011;877;46.266;20.062;2023-03-01T03:22:29;34.65;;;17.33;;
1759;SDS011;877;46.266;20.062;2023-03-01T03:24:55;32.35;;;16.88;;
1759;SDS011;877;46.266;20.062;2023-03-01T03:27:21;31.88;;;17.58;;
1759;SDS011;877;46.266;20.062;2023-03-01T03:29:47;26.95;;;15.25;;
1759;SDS011;877;46.266;20.062;2023-03-01T03:32:14;32.88;;;15.95;;
1759;SDS011;877;46.266;20.062;2023-03-01T03:34:40;28.98;;;15.60;;
1759;SDS011;877;46.266;20.062;2023-03-01T03:37:06;28.45;;;15.68;;
1759;SDS011;877;46.266;20.062;2023-03-01T03:39:52;28.70;;;16.77;;
1759;SDS011;877;46.266;20.062;2023-03-01T03:42:20;30.60;;;15.90;;
1759;SDS011;877;46.266;20.062;2023-03-01T03:44:47;36.28;;;21.50;;
1759;SDS011;877;46.266;20.062;2023-03-01T03:47:14;29.67;;;18.50;;
1759;SDS011;877;46.266;20.062;2023-03-01T03:49:40;34.92;;;20.38;;
1759;SDS011;877;46.266;20.062;2023-03-01T03:52:06;29.25;;;16.55;;
1759;SDS011;877;46.266;20.062;2023-03-01T03:54:39;28.02;;;15.55;;
1759;SDS011;877;46.266;20.062;2023-03-01T03:57:05;30.05;;;17.70;;
1759;SDS011;877;46.266;20.062;2023-03-01T03:59:32;31.30;;;15.18;;
1759;SDS011;877;46.266;20.062;2023-03-01T04:01:59;26.90;;;16.95;;
1759;SDS011;877;46.266;20.062;2023-03-01T04:04:25;32.25;;;16.80;;
1759;SDS011;877;46.266;20.062;2023-03-01T04:06:51;26.88;;;15.48;;
1759;SDS011;877;46.266;20.062;2023-03-01T04:09:17;27.70;;;14.75;;
1759;SDS011;877;46.266;20.062;2023-03-01T04:11:43;32.10;;;16.33;;
1759;SDS011;877;46.266;20.062;2023-03-01T04:14:11;29.88;;;17.00;;
1759;SDS011;877;46.266;20.062;2023-03-01T04:16:37;37.97;;;20.35;;
1759;SDS011;877;46.266;20.062;2023-03-01T04:19:03;42.63;;;22.20;;
1759;SDS011;877;46.266;20.062;2023-03-01T04:21:31;42.80;;;19.52;;
1759;SDS011;877;46.266;20.062;2023-03-01T04:23:57;34.38;;;18.73;;
1759;SDS011;877;46.266;20.062;2023-03-01T04:26:23;32.40;;;18.70;;
1759;SDS011;877;46.266;20.062;2023-03-01T04:28:49;28.65;;;17.27;;
1759;SDS011;877;46.266;20.062;2023-03-01T04:31:16;28.35;;;17.25;;
1759;SDS011;877;46.266;20.062;2023-03-01T04:36:12;40.17;;;19.42;;
1759;SDS011;877;46.266;20.062;2023-03-01T04:38:39;35.30;;;18.98;;
1759;SDS011;877;46.266;20.062;2023-03-01T04:41:07;38.67;;;25.80;;
1759;SDS011;877;46.266;20.062;2023-03-01T04:43:34;42.30;;;28.25;;
1759;SDS011;877;46.266;20.062;2023-03-01T04:46:04;39.95;;;28.67;;
1759;SDS011;877;46.266;20.062;2023-03-01T04:48:32;29.90;;;18.05;;
1759;SDS011;877;46.266;20.062;2023-03-01T04:50:59;34.00;;;16.63;;
1759;SDS011;877;46.266;20.062;2023-03-01T04:53:27;31.38;;;17.50;;
1759;SDS011;877;46.266;20.062;2023-03-01T04:55:56;27.90;;;15.02;;
1759;SDS011;877;46.266;20.062;2023-03-01T04:58:24;31.10;;;18.55;;
1759;SDS011;877;46.266;20.062;2023-03-01T05:00:53;32.80;;;25.67;;
1759;SDS011;877;46.266;20.062;2023-03-01T05:03:19;28.67;;;16.13;;
1759;SDS011;877;46.266;20.062;2023-03-01T05:05:46;33.15;;;16.05;;
1759;SDS011;877;46.266;20.062;2023-03-01T05:08:13;28.77;;;16.95;;
1759;SDS011;877;46.266;20.062;2023-03-01T05:10:43;30.55;;;17.77;;
1759;SDS011;877;46.266;20.062;2023-03-01T05:13:11;34.90;;;21.13;;
1759;SDS011;877;46.266;20.062;2023-03-01T05:15:40;35.50;;;25.27;;
1759;SDS011;877;46.266;20.062;2023-03-01T05:18:06;29.90;;;17.55;;
1759;SDS011;877;46.266;20.062;2023-03-01T05:20:36;27.73;;;16.73;;
1759;SDS011;877;46.266;20.062;2023-03-01T05:23:03;42.20;;;23.45;;
1759;SDS011;877;46.266;20.062;2023-03-01T05:25:30;31.13;;;15.40;;
1759;SDS011;877;46.266;20.062;2023-03-01T05:27:58;36.45;;;19.70;;
1759;SDS011;877;46.266;20.062;2023-03-01T05:30:28;36.90;;;20.25;;
1759;SDS011;877;46.266;20.062;2023-03-01T05:32:55;37.67;;;21.95;;
1759;SDS011;877;46.266;20.062;2023-03-01T05:35:21;35.88;;;20.88;;
1759;SDS011;877;46.266;20.062;2023-03-01T05:37:48;31.77;;;17.85;;
1759;SDS011;877;46.266;20.062;2023-03-01T05:40:17;35.60;;;18.23;;
1759;SDS011;877;46.266;20.062;2023-03-01T05:42:48;39.45;;;17.75;;
1759;SDS011;877;46.266;20.062;2023-03-01T05:45:15;34.45;;;19.85;;
1759;SDS011;877;46.266;20.062;2023-03-01T05:47:42;35.65;;;18.70;;
1759;SDS011;877;46.266;20.062;2023-03-01T05:50:12;25.25;;;15.18;;
1759;SDS011;877;46.266;20.062;2023-03-01T05:52:38;30.33;;;16.35;;
1759;SDS011;877;46.266;20.062;2023-03-01T05:55:04;32.33;;;18.85;;
1759;SDS011;877;46.266;20.062;2023-03-01T05:57:31;38.22;;;23.65;;
1759;SDS011;877;46.266;20.062;2023-03-01T05:59:57;38.97;;;20.65;;
1759;SDS011;877;46.266;20.062;2023-03-01T06:02:23;39.05;;;24.13;;
1759;SDS011;877;46.266;20.062;2023-03-01T06:04:49;30.40;;;15.75;;
1759;SDS011;877;46.266;20.062;2023-03-01T06:07:15;35.95;;;24.85;;
1759;SDS011;877;46.266;20.062;2023-03-01T06:09:41;36.38;;;20.42;;
1759;SDS011;877;46.266;20.062;2023-03-01T06:12:07;42.83;;;29.80;;
1759;SDS011;877;46.266;20.062;2023-03-01T06:14:34;30.75;;;18.15;;
1759;SDS011;877;46.266;20.062;2023-03-01T06:17:00;37.60;;;33.53;;
1759;SDS011;877;46.266;20.062;2023-03-01T06:19:26;41.83;;;32.88;;
1759;SDS011;877;46.266;20.062;2023-03-01T06:21:52;34.22;;;22.90;;
1759;SDS011;877;46.266;20.062;2023-03-01T06:24:18;36.75;;;25.77;;
1759;SDS011;877;46.266;20.062;2023-03-01T06:26:44;30.77;;;17.08;;
1759;SDS011;877;46.266;20.062;2023-03-01T06:29:10;30.42;;;26.73;;
1759;SDS011;877;46.266;20.062;2023-03-01T06:31:36;36.70;;;30.95;;
1759;SDS011;877;46.266;20.062;2023-03-01T06:34:02;33.85;;;29.92;;
1759;SDS011;877;46.266;20.062;2023-03-01T06:36:29;39.78;;;32.33;;
1759;SDS011;877;46.266;20.062;2023-03-01T06:38:56;41.60;;;33.08;;
1759;SDS011;877;46.266;20.062;2023-03-01T06:41:22;36.00;;;29.83;;
1759;SDS011;877;46.266;20.062;2023-03-01T06:43:48;42.20;;;31.15;;
1759;SDS011;877;46.266;20.062;2023-03-01T06:46:15;45.42;;;35.70;;
1759;SDS011;877;46.266;20.062;2023-03-01T06:48:41;32.20;;;25.25;;
1759;SDS011;877;46.266;20.062;2023-03-01T06:51:07;37.53;;;31.15;;
1759;SDS011;877;46.266;20.062;2023-03-01T06:53:33;28.65;;;19.90;;
1759;SDS011;877;46.266;20.062;2023-03-01T06:56:00;26.13;;;16.48;;
1759;SDS011;877;46.266;20.062;2023-03-01T06:58:26;34.15;;;26.20;;
1759;SDS011;877;46.266;20.062;2023-03-01T07:00:52;41.97;;;33.03;;
1759;SDS011;877;46.266;20.062;2023-03-01T07:03:18;42.20;;;34.22;;
1759;SDS011;877;46.266;20.062;2023-03-01T07:05:44;34.92;;;30.35;;
1759;SDS011;877;46.266;20.062;2023-03-01T07:08:13;41.92;;;30.95;;
1759;SDS011;877;46.266;20.062;2023-03-01T07:10:39;45.72;;;36.63;;
1759;SDS011;877;46.266;20.062;2023-03-01T07:13:06;42.72;;;34.05;;
1759;SDS011;877;46.266;20.062;2023-03-01T07:15:32;44.28;;;36.90;;
1759;SDS011;877;46.266;20.062;2023-03-01T07:17:58;49.83;;;39.90;;
1759;SDS011;877;46.266;20.062;2023-03-01T07:20:24;45.60;;;36.15;;
1759;SDS011;877;46.266;20.062;2023-03-01T07:22:51;51.53;;;39.55;;
1759;SDS011;877;46.266;20.062;2023-03-01T07:25:18;50.97;;;41.10;;
1759;SDS011;877;46.266;20.062;2023-03-01T07:27:48;54.50;;;42.67;;
1759;SDS011;877;46.266;20.062;2023-03-01T07:30:14;59.47;;;39.72;;
1759;SDS011;877;46.266;20.062;2023-03-01T07:32:41;55.78;;;43.08;;
1759;SDS011;877;46.266;20.062;2023-03-01T07:35:08;48.50;;;39.80;;
1759;SDS011;877;46.266;20.062;2023-03-01T07:37:34;48.22;;;39.78;;
1759;SDS011;877;46.266;20.062;2023-03-01T07:40:00;46.17;;;38.25;;
1759;SDS011;877;46.266;20.062;2023-03-01T07:42:26;56.38;;;41.97;;
1759;SDS011;877;46.266;20.062;2023-03-01T07:44:52;66.55;;;47.70;;
1759;SDS011;877;46.266;20.062;2023-03-01T07:47:19;70.70;;;44.63;;
1759;SDS011;877;46.266;20.062;2023-03-01T07:49:45;67.28;;;44.08;;
1759;SDS011;877;46.266;20.062;2023-03-01T07:52:12;60.53;;;44.30;;
1759;SDS011;877;46.266;20.062;2023-03-01T07:54:38;56.42;;;42.75;;
1759;SDS011;877;46.266;20.062;2023-03-01T07:57:04;50.90;;;39.03;;
1759;SDS011;877;46.266;20.062;2023-03-01T07:59:30;55.17;;;42.78;;
1759;SDS011;877;46.266;20.062;2023-03-01T08:01:57;52.90;;;41.28;;
1759;SDS011;877;46.266;20.062;2023-03-01T08:04:24;56.35;;;42.63;;
1759;SDS011;877;46.266;20.062;2023-03-01T08:06:51;51.38;;;40.67;;
1759;SDS011;877;46.266;20.062;2023-03-01T08:09:19;55.97;;;45.20;;
1759;SDS011;877;46.266;20.062;2023-03-01T08:11:45;48.53;;;37.88;;
1759;SDS011;877;46.266;20.062;2023-03-01T08:14:11;54.30;;;42.13;;
1759;SDS011;877;46.266;20.062;2023-03-01T08:16:38;52.95;;;41.20;;
1759;SDS011;877;46.266;20.062;2023-03-01T08:19:08;60.10;;;42.35;;
1759;SDS011;877;46.266;20.062;2023-03-01T08:21:34;55.35;;;44.28;;
1759;SDS011;877;46.266;20.062;2023-03-01T08:24:02;51.25;;;39.70;;
1759;SDS011;877;46.266;20.062;2023-03-01T08:26:30;50.17;;;41.33;;
1759;SDS011;877;46.266;20.062;2023-03-01T08:28:56;45.03;;;35.65;;
1759;SDS011;877;46.266;20.062;2023-03-01T08:31:27;48.03;;;38.35;;
1759;SDS011;877;46.266;20.062;2023-03-01T08:33:54;50.60;;;41.55;;
1759;SDS011;877;46.266;20.062;2023-03-01T08:36:23;59.72;;;46.00;;
1759;SDS011;877;46.266;20.062;2023-03-01T08:38:50;58.17;;;44.55;;
1759;SDS011;877;46.266;20.062;2023-03-01T08:41:16;58.92;;;45.60;;
1759;SDS011;877;46.266;20.062;2023-03-01T08:43:42;64.45;;;45.50;;
1759;SDS011;877;46.266;20.062;2023-03-01T08:46:08;72.68;;;49.25;;
1759;SDS011;877;46.266;20.062;2023-03-01T08:48:35;69.07;;;49.63;;
1759;SDS011;877;46.266;20.062;2023-03-01T08:51:08;61.88;;;45.70;;
1759;SDS011;877;46.266;20.062;2023-03-01T08:56:18;60.67;;;46.53;;
1759;SDS011;877;46.266;20.062;2023-03-01T08:58:52;66.60;;;44.33;;
1759;SDS011;877;46.266;20.062;2023-03-01T09:04:15;65.97;;;45.80;;
1759;SDS011;877;46.266;20.062;2023-03-01T09:06:54;70.07;;;48.35;;
1759;SDS011;877;46.266;20.062;2023-03-01T09:09:33;66.13;;;46.85;;
1759;SDS011;877;46.266;20.062;2023-03-01T09:12:11;66.50;;;47.40;;
1759;SDS011;877;46.266;20.062;2023-03-01T09:17:07;69.57;;;48.22;;
1759;SDS011;877;46.266;20.062;2023-03-01T09:19:37;76.93;;;49.45;;
1759;SDS011;877;46.266;20.062;2023-03-01T09:22:05;68.65;;;48.10;;
1759;SDS011;877;46.266;20.062;2023-03-01T09:24:31;67.70;;;49.33;;
1759;SDS011;877;46.266;20.062;2023-03-01T09:26:58;66.07;;;48.15;;
1759;SDS011;877;46.266;20.062;2023-03-01T09:29:24;79.55;;;50.90;;
1759;SDS011;877;46.266;20.062;2023-03-01T09:31:51;77.22;;;51.00;;
1759;SDS011;877;46.266;20.062;2023-03-01T09:34:20;62.83;;;48.08;;
1759;SDS011;877;46.266;20.062;2023-03-01T09:36:48;35.20;;;17.20;;
1759;SDS011;877;46.266;20.062;2023-03-01T09:39:16;53.65;;;41.67;;
1759;SDS011;877;46.266;20.062;2023-03-01T09:47:25;40.95;;;35.17;;
1759;SDS011;877;46.266;20.062;2023-03-01T09:49:57;58.75;;;44.72;;
1759;SDS011;877;46.266;20.062;2023-03-01T09:52:36;55.22;;;44.60;;
1759;SDS011;877;46.266;20.062;2023-03-01T09:55:08;56.28;;;43.75;;
1759;SDS011;877;46.266;20.062;2023-03-01T09:57:46;56.63;;;45.40;;
1759;SDS011;877;46.266;20.062;2023-03-01T10:00:22;51.80;;;39.90;;
1759;SDS011;877;46.266;20.062;2023-03-01T10:08:24;34.03;;;17.92;;
1759;SDS011;877;46.266;20.062;2023-03-01T10:10:53;29.75;;;16.13;;
1759;SDS011;877;46.266;20.062;2023-03-01T10:13:21;31.40;;;16.30;;
1759;SDS011;877;46.266;20.062;2023-03-01T10:15:49;31.13;;;17.52;;
1759;SDS011;877;46.266;20.062;2023-03-01T10:18:20;39.97;;;34.28;;
1759;SDS011;877;46.266;20.062;2023-03-01T10:23:22;48.88;;;40.90;;
1759;SDS011;877;46.266;20.062;2023-03-01T10:26:09;43.92;;;38.88;;
1759;SDS011;877;46.266;20.062;2023-03-01T10:31:15;33.47;;;26.02;;
1759;SDS011;877;46.266;20.062;2023-03-01T10:33:43;38.85;;;33.97;;
1759;SDS011;877;46.266;20.062;2023-03-01T10:36:09;40.88;;;36.58;;
1759;SDS011;877;46.266;20.062;2023-03-01T10:38:55;34.65;;;31.05;;
1759;SDS011;877;46.266;20.062;2023-03-01T10:41:22;40.92;;;36.40;;
1759;SDS011;877;46.266;20.062;2023-03-01T10:43:50;45.58;;;40.55;;
1759;SDS011;877;46.266;20.062;2023-03-01T10:46:36;41.38;;;37.03;;
1759;SDS011;877;46.266;20.062;2023-03-01T10:51:32;44.60;;;39.47;;
1759;SDS011;877;46.266;20.062;2023-03-01T10:53:58;41.95;;;37.75;;
1759;SDS011;877;46.266;20.062;2023-03-01T10:56:25;27.48;;;18.38;;
1759;SDS011;877;46.266;20.062;2023-03-01T10:59:01;44.70;;;39.85;;
1759;SDS011;877;46.266;20.062;2023-03-01T11:01:29;49.63;;;36.78;;
1759;SDS011;877;46.266;20.062;2023-03-01T11:06:32;48.90;;;40.80;;
1759;SDS011;877;46.266;20.062;2023-03-01T11:09:21;45.97;;;41.08;;
1759;SDS011;877;46.266;20.062;2023-03-01T11:11:45;54.45;;;41.95;;
1759;SDS011;877;46.266;20.062;2023-03-01T11:16:39;55.97;;;44.17;;
1759;SDS011;877;46.266;20.062;2023-03-01T11:21:44;60.97;;;52.60;;
1759;SDS011;877;46.266;20.062;2023-03-01T11:24:13;53.13;;;43.05;;
1759;SDS011;877;46.266;20.062;2023-03-01T11:26:41;49.63;;;43.40;;
1759;SDS011;877;46.266;20.062;2023-03-01T11:29:12;53.78;;;47.13;;
1759;SDS011;877;46.266;20.062;2023-03-01T11:31:41;52.00;;;45.45;;
1759;SDS011;877;46.266;20.062;2023-03-01T11:34:10;60.70;;;54.15;;
1759;SDS011;877;46.266;20.062;2023-03-01T11:36:44;66.22;;;54.00;;
1759;SDS011;877;46.266;20.062;2023-03-01T11:41:38;62.58;;;54.63;;
1759;SDS011;877;46.266;20.062;2023-03-01T11:44:10;65.10;;;53.58;;
1759;SDS011;877;46.266;20.062;2023-03-01T11:52:09;41.55;;;37.58;;
1759;SDS011;877;46.266;20.062;2023-03-01T12:02:47;33.28;;;27.92;;
1759;SDS011;877;46.266;20.062;2023-03-01T12:05:24;39.88;;;35.80;;
1759;SDS011;877;46.266;20.062;2023-03-01T12:08:05;41.90;;;30.23;;
1759;SDS011;877;46.266;20.062;2023-03-01T12:13:39;37.30;;;28.13;;
1759;SDS011;877;46.266;20.062;2023-03-01T12:21:13;36.53;;;31.30;;
1759;SDS011;877;46.266;20.062;2023-03-01T12:26:26;59.40;;;53.58;;
1759;SDS011;877;46.266;20.062;2023-03-01T12:29:01;58.35;;;51.92;;
1759;SDS011;877;46.266;20.062;2023-03-01T12:34:38;65.72;;;58.60;;
1759;SDS011;877;46.266;20.062;2023-03-01T12:36:53;66.05;;;58.47;;
1759;SDS011;877;46.266;20.062;2023-03-01T12:49:40;55.83;;;50.53;;
1759;SDS011;877;46.266;20.062;2023-03-01T12:52:19;62.53;;;56.42;;
1759;SDS011;877;46.266;20.062;2023-03-01T12:54:49;66.00;;;58.58;;
1759;SDS011;877;46.266;20.062;2023-03-01T12:57:39;54.00;;;49.10;;
1759;SDS011;877;46.266;20.062;2023-03-01T13:05:29;55.67;;;50.17;;
1759;SDS011;877;46.266;20.062;2023-03-01T13:08:13;57.25;;;51.50;;
1759;SDS011;877;46.266;20.062;2023-03-01T13:10:52;77.38;;;69.13;;
1759;SDS011;877;46.266;20.062;2023-03-01T13:13:24;79.60;;;71.38;;
1759;SDS011;877;46.266;20.062;2023-03-01T13:15:51;69.45;;;62.63;;
1759;SDS011;877;46.266;20.062;2023-03-01T13:20:56;81.47;;;73.38;;
1759;SDS011;877;46.266;20.062;2023-03-01T13:23:29;76.72;;;69.35;;
1759;SDS011;877;46.266;20.062;2023-03-01T13:31:03;86.97;;;78.50;;
1759;SDS011;877;46.266;20.062;2023-03-01T13:35:56;75.35;;;68.10;;
1759;SDS011;877;46.266;20.062;2023-03-01T13:38:37;67.68;;;61.78;;
1759;SDS011;877;46.266;20.062;2023-03-01T13:41:04;93.63;;;84.43;;
1759;SDS011;877;46.266;20.062;2023-03-01T13:43:31;94.72;;;85.50;;
1759;SDS011;877;46.266;20.062;2023-03-01T13:45:59;100.65;;;90.60;;
1759;SDS011;877;46.266;20.062;2023-03-01T13:48:27;95.90;;;86.80;;
1759;SDS011;877;46.266;20.062;2023-03-01T13:51:03;96.93;;;87.13;;
1759;SDS011;877;46.266;20.062;2023-03-01T13:53:31;111.75;;;99.90;;
1759;SDS011;877;46.266;20.062;2023-03-01T13:56:00;97.55;;;83.95;;
1759;SDS011;877;46.266;20.062;2023-03-01T13:58:30;102.85;;;90.18;;
1759;SDS011;877;46.266;20.062;2023-03-01T14:03:23;108.93;;;97.37;;
1759;SDS011;877;46.266;20.062;2023-03-01T14:06:06;115.00;;;97.13;;
1759;SDS011;877;46.266;20.062;2023-03-01T14:08:33;109.40;;;96.33;;
1759;SDS011;877;46.266;20.062;2023-03-01T14:19:12;111.43;;;100.27;;
1759;SDS011;877;46.266;20.062;2023-03-01T14:21:41;19.67;;;12.43;;
1759;SDS011;877;46.266;20.062;2023-03-01T14:24:15;18.77;;;11.30;;
1759;SDS011;877;46.266;20.062;2023-03-01T14:26:43;23.87;;;12.43;;
1759;SDS011;877;46.266;20.062;2023-03-01T14:29:33;23.00;;;12.57;;
1759;SDS011;877;46.266;20.062;2023-03-01T14:32:12;17.80;;;11.50;;
1759;SDS011;877;46.266;20.062;2023-03-01T14:34:44;23.07;;;12.60;;
1759;SDS011;877;46.266;20.062;2023-03-01T14:37:20;16.63;;;11.60;;
1759;SDS011;877;46.266;20.062;2023-03-01T14:39:47;17.10;;;9.23;;
1759;SDS011;877;46.266;20.062;2023-03-01T14:42:14;21.37;;;11.77;;
1759;SDS011;877;46.266;20.062;2023-03-01T14:44:44;20.87;;;11.07;;
1759;SDS011;877;46.266;20.062;2023-03-01T14:47:12;20.25;;;11.77;;
1759;SDS011;877;46.266;20.062;2023-03-01T14:49:40;19.20;;;12.23;;
1759;SDS011;877;46.266;20.062;2023-03-01T14:52:15;23.70;;;16.37;;
1759;SDS011;877;46.266;20.062;2023-03-01T14:54:44;22.20;;;11.07;;
1759;SDS011;877;46.266;20.062;2023-03-01T14:57:25;18.67;;;9.30;;
1759;SDS011;877;46.266;20.062;2023-03-01T14:59:57;14.73;;;8.77;;
1759;SDS011;877;46.266;20.062;2023-03-01T15:02:25;18.20;;;10.50;;
1759;SDS011;877;46.266;20.062;2023-03-01T15:04:54;24.07;;;10.00;;
1759;SDS011;877;46.266;20.062;2023-03-01T15:07:26;17.17;;;9.77;;
1759;SDS011;877;46.266;20.062;2023-03-01T15:09:54;18.70;;;10.50;;
1759;SDS011;877;46.266;20.062;2023-03-01T15:14:56;15.10;;;9.40;;
1759;SDS011;877;46.266;20.062;2023-03-01T15:17:26;15.53;;;8.47;;
1759;SDS011;877;46.266;20.062;2023-03-01T15:19:54;13.83;;;8.47;;
1759;SDS011;877;46.266;20.062;2023-03-01T15:22:20;18.10;;;10.17;;
1759;SDS011;877;46.266;20.062;2023-03-01T15:24:48;18.37;;;9.87;;
1759;SDS011;877;46.266;20.062;2023-03-01T15:27:16;17.63;;;11.30;;
1759;SDS011;877;46.266;20.062;2023-03-01T15:29:48;21.73;;;11.47;;
1759;SDS011;877;46.266;20.062;2023-03-01T15:34:47;47.20;;;43.20;;
1759;SDS011;877;46.266;20.062;2023-03-01T15:39:57;17.13;;;11.20;;
1759;SDS011;877;46.266;20.062;2023-03-01T15:47:39;40.27;;;27.83;;
1759;SDS011;877;46.266;20.062;2023-03-01T15:50:27;19.73;;;13.27;;
1759;SDS011;877;46.266;20.062;2023-03-01T15:52:53;20.90;;;15.73;;
1759;SDS011;877;46.266;20.062;2023-03-01T15:55:21;23.50;;;16.90;;
1759;SDS011;877;46.266;20.062;2023-03-01T15:57:48;27.53;;;17.30;;
1759;SDS011;877;46.266;20.062;2023-03-01T16:00:15;21.13;;;16.10;;
1759;SDS011;877;46.266;20.062;2023-03-01T16:02:42;24.13;;;16.53;;
1759;SDS011;877;46.266;20.062;2023-03-01T16:05:31;39.50;;;22.90;;
1759;SDS011;877;46.266;20.062;2023-03-01T16:07:59;31.80;;;22.10;;
1759;SDS011;877;46.266;20.062;2023-03-01T16:10:25;24.77;;;16.70;;
1759;SDS011;877;46.266;20.062;2023-03-01T16:12:52;23.63;;;15.40;;
1759;SDS011;877;46.266;20.062;2023-03-01T16:15:20;31.10;;;16.00;;
1759;SDS011;877;46.266;20.062;2023-03-01T16:17:47;32.03;;;18.07;;
1759;SDS011;877;46.266;20.062;2023-03-01T16:20:13;23.25;;;14.48;;
1759;SDS011;877;46.266;20.062;2023-03-01T16:22:41;34.93;;;18.37;;
1759;SDS011;877;46.266;20.062;2023-03-01T16:25:10;25.17;;;20.37;;
1759;SDS011;877;46.266;20.062;2023-03-01T16:27:37;26.30;;;23.00;;
1759;SDS011;877;46.266;20.062;2023-03-01T16:30:04;24.13;;;17.37;;
1759;SDS011;877;46.266;20.062;2023-03-01T16:32:30;25.65;;;19.90;;
1759;SDS011;877;46.266;20.062;2023-03-01T16:34:57;22.63;;;18.90;;
1759;SDS011;877;46.266;20.062;2023-03-01T16:37:23;27.17;;;24.57;;
1759;SDS011;877;46.266;20.062;2023-03-01T16:39:49;28.20;;;20.83;;
1759;SDS011;877;46.266;20.062;2023-03-01T16:42:18;24.80;;;18.60;;
1759;SDS011;877;46.266;20.062;2023-03-01T16:44:44;22.85;;;19.00;;
1759;SDS011;877;46.266;20.062;2023-03-01T16:47:11;18.33;;;12.30;;
1759;SDS011;877;46.266;20.062;2023-03-01T16:49:37;17.87;;;12.13;;
1759;SDS011;877;46.266;20.062;2023-03-01T16:52:03;19.73;;;12.35;;
1759;SDS011;877;46.266;20.062;2023-03-01T16:54:29;21.42;;;12.68;;